Time;durP1;ratioP1;P1;durP2;ratioP2;P2;SDS_P1;SDS_P2;PMS_P1;PMS_P2;Temp;Humidity;BMP_temperature;BMP_pressure;BME280_temperature;BME280_humidity;BME280_pressure;Samples;Min_cycle;Max_cycle;Signal;HPM_P1;HPM_P2
2022/05/03 00:00:12;;;;;;;12.95;8.20;;;24.30;99.90;;;;;;5052697;22;20052;-49
2022/05/03 00:03:09;;;;;;;11.23;8.85;;;24.30;99.90;;;;;;5050645;28;20028;-50
2022/05/03 00:05:47;;;;;;;13.77;8.43;;;24.30;99.90;;;;;;5050521;28;20037;-49
2022/05/03 00:08:35;;;;;;;10.13;8.07;;;24.30;99.90;;;;;;5051000;28;20477;-49
2022/05/03 00:11:18;;;;;;;10.02;8.48;;;24.30;99.90;;;;;;5050855;28;20120;-49
2022/05/03 00:13:58;;;;;;;10.25;8.32;;;24.30;99.90;;;;;;5050664;28;20422;-50
2022/05/03 00:16:26;;;;;;;11.63;9.20;;;24.30;99.90;;;;;;5049290;28;20025;-50
2022/05/03 00:18:52;;;;;;;10.73;8.13;;;24.30;99.90;;;;;;5049158;28;20516;-49
2022/05/03 00:21:18;;;;;;;10.90;8.70;;;24.20;99.90;;;;;;5050409;28;20521;-49
2022/05/03 00:23:44;;;;;;;11.93;8.95;;;24.20;99.90;;;;;;5052907;28;20029;-49
2022/05/03 00:26:11;;;;;;;10.95;8.45;;;24.20;99.90;;;;;;5054255;28;20475;-48
2022/05/03 00:28:38;;;;;;;11.18;8.50;;;24.20;99.90;;;;;;5054299;28;20087;-49
2022/05/03 00:31:05;;;;;;;11.60;9.07;;;24.20;99.90;;;;;;5054111;28;20039;-49
2022/05/03 00:33:35;;;;;;;12.32;9.43;;;24.20;99.90;;;;;;5054053;28;20332;-49
2022/05/03 00:36:01;;;;;;;12.73;9.20;;;24.20;99.90;;;;;;5054197;28;20068;-49
2022/05/03 00:38:27;;;;;;;12.43;9.88;;;24.20;99.90;;;;;;5054237;28;20021;-50
2022/05/03 00:40:59;;;;;;;11.77;8.82;;;24.20;99.90;;;;;;5054155;28;20029;-49
2022/05/03 00:43:51;;;;;;;11.52;8.98;;;24.20;99.90;;;;;;5053940;28;20364;-49
2022/05/03 00:46:22;;;;;;;12.55;9.55;;;24.20;99.90;;;;;;5053971;28;20535;-49
2022/05/03 00:49:06;;;;;;;15.13;10.18;;;24.20;99.90;;;;;;5054054;28;20025;-49
2022/05/03 00:51:57;;;;;;;11.82;8.88;;;24.20;99.90;;;;;;5053735;28;20071;-49
2022/05/03 00:54:26;;;;;;;14.98;10.25;;;24.20;99.90;;;;;;5050302;28;20052;-49
2022/05/03 00:57:56;;;;;;;11.95;9.27;;;24.20;99.90;;;;;;5053594;28;20050;-49
2022/05/03 01:00:24;;;;;;;13.32;9.45;;;24.20;99.90;;;;;;5037027;22;20049;-46
2022/05/03 01:03:21;;;;;;;11.98;8.40;;;24.10;99.90;;;;;;5033555;28;20037;-47
2022/05/03 01:06:30;;;;;;;12.93;9.90;;;24.10;99.90;;;;;;5033059;28;20037;-47
2022/05/03 01:09:05;;;;;;;11.65;8.35;;;24.10;99.90;;;;;;5033497;28;20052;-46
2022/05/03 01:11:35;;;;;;;12.13;9.07;;;24.10;99.90;;;;;;5033357;28;20100;-47
2022/05/03 01:14:24;;;;;;;12.35;8.95;;;24.10;99.90;;;;;;5033293;28;20042;-47
2022/05/03 01:16:59;;;;;;;11.18;8.98;;;24.10;99.90;;;;;;5033534;28;20014;-47
2022/05/03 01:19:56;;;;;;;12.77;8.35;;;24.10;99.90;;;;;;5033314;28;20108;-47
2022/05/03 01:22:55;;;;;;;13.43;8.70;;;24.10;99.90;;;;;;5033263;28;20021;-47
2022/05/03 01:25:48;;;;;;;11.27;8.38;;;24.10;99.90;;;;;;5033262;28;20076;-47
2022/05/03 01:28:32;;;;;;;11.60;8.60;;;24.10;99.90;;;;;;5033254;28;20028;-47
2022/05/03 01:31:09;;;;;;;11.82;8.45;;;24.10;99.90;;;;;;5033031;28;20033;-47
2022/05/03 01:33:40;;;;;;;9.85;7.68;;;24.10;99.90;;;;;;5031829;28;20152;-47
2022/05/03 01:36:08;;;;;;;11.55;8.57;;;24.10;99.90;;;;;;5032228;28;20064;-47
2022/05/03 01:38:39;;;;;;;;;;;24.10;99.90;;;;;;5033359;28;20021;-47
2022/05/03 01:41:07;;;;;;;11.30;8.20;;;24.10;99.90;;;;;;5032885;28;19905;-47
2022/05/03 01:44:07;;;;;;;9.02;7.22;;;24.10;99.90;;;;;;5032788;28;20030;-47
2022/05/03 01:46:36;;;;;;;12.35;8.40;;;24.00;99.90;;;;;;5032752;28;20382;-47
2022/05/03 01:52:13;;;;;;;11.82;7.82;;;24.00;99.90;;;;;;5032709;28;20076;-47
2022/05/03 01:58:16;;;;;;;10.35;7.47;;;24.00;99.90;;;;;;5032898;28;20032;-47
2022/05/03 02:00:58;;;;;;;9.30;7.28;;;24.00;99.90;;;;;;5032844;28;20045;-47
2022/05/03 02:03:30;;;;;;;9.02;7.30;;;24.00;99.90;;;;;;5032589;28;20025;-46
2022/05/03 02:06:10;;;;;;;11.52;7.38;;;24.10;99.90;;;;;;5032456;28;20052;-46
2022/05/03 02:09:04;;;;;;;9.32;6.88;;;24.00;99.90;;;;;;5032513;28;20040;-47
2022/05/03 02:12:08;;;;;;;9.10;7.30;;;24.00;99.90;;;;;;5032312;28;20021;-47
2022/05/03 02:14:46;;;;;;;9.48;7.32;;;24.00;99.90;;;;;;5032385;28;20041;-47
2022/05/03 02:20:39;;;;;;;7.40;6.60;;;24.00;99.90;;;;;;5032276;28;20060;-48
2022/05/03 02:23:24;;;;;;;9.27;6.57;;;24.00;99.90;;;;;;5032224;28;20037;-48
2022/05/03 02:26:05;;;;;;;10.65;7.07;;;24.00;99.90;;;;;;5032065;28;20083;-47
2022/05/03 02:28:54;;;;;;;10.15;7.75;;;24.00;99.90;;;;;;5032170;28;20049;-47
2022/05/03 02:31:38;;;;;;;9.25;6.95;;;24.00;99.90;;;;;;5032170;28;20033;-46
2022/05/03 02:34:23;;;;;;;8.88;6.80;;;24.00;99.90;;;;;;5031702;28;20037;-47
2022/05/03 02:40:03;;;;;;;8.60;6.15;;;24.00;99.90;;;;;;5031974;28;20105;-46
2022/05/03 02:42:29;;;;;;;9.60;6.38;;;24.00;99.90;;;;;;5030689;28;20027;-46
2022/05/03 02:45:00;;;;;;;8.18;6.00;;;24.00;99.90;;;;;;5031704;28;20028;-46
2022/05/03 02:47:56;;;;;;;10.88;6.95;;;24.00;99.90;;;;;;5030780;28;20052;-47
2022/05/03 02:50:30;;;;;;;7.38;6.57;;;24.00;99.90;;;;;;5031702;28;20027;-47
2022/05/03 02:53:07;;;;;;;9.70;6.68;;;24.00;99.90;;;;;;5031588;28;20033;-47
2022/05/03 02:55:45;;;;;;;7.70;5.80;;;23.90;99.90;;;;;;5031567;28;20022;-46
2022/05/03 02:58:23;;;;;;;8.63;6.43;;;24.00;99.90;;;;;;5031583;28;20104;-46
2022/05/03 03:04:28;;;;;;;8.10;6.22;;;24.00;99.90;;;;;;5008033;28;20065;-46
2022/05/03 03:06:55;;;;;;;7.47;5.35;;;23.90;99.90;;;;;;5031276;28;20028;-46
2022/05/03 03:09:27;;;;;;;7.20;5.22;;;23.90;99.90;;;;;;5031252;28;20036;-47
2022/05/03 03:12:01;;;;;;;8.27;5.70;;;23.90;99.90;;;;;;5031342;28;20022;-46
2022/05/03 03:14:39;;;;;;;7.70;5.80;;;23.90;99.90;;;;;;5031210;28;20045;-46
2022/05/03 03:17:08;;;;;;;;;;;24.00;99.90;;;;;;5031785;28;20063;-47
2022/05/03 03:19:56;;;;;;;6.70;5.35;;;24.00;99.90;;;;;;5031274;28;19916;-47
2022/05/03 03:22:28;;;;;;;6.28;5.03;;;23.90;99.90;;;;;;5031279;28;20040;-47
2022/05/03 03:24:57;;;;;;;5.72;4.97;;;24.00;99.90;;;;;;5031273;28;20053;-47
2022/05/03 03:27:26;;;;;;;8.90;5.70;;;23.90;99.90;;;;;;5031184;28;20025;-47
2022/05/03 03:29:55;;;;;;;7.35;5.05;;;23.90;99.90;;;;;;5031300;28;20374;-47
2022/05/03 03:32:25;;;;;;;7.03;5.60;;;23.90;99.90;;;;;;5031267;28;20380;-47
2022/05/03 03:34:55;;;;;;;5.13;4.47;;;23.90;99.90;;;;;;5031013;28;20337;-47
2022/05/03 03:37:24;;;;;;;6.55;4.93;;;23.90;99.90;;;;;;5031065;28;20022;-47
2022/05/03 03:39:50;;;;;;;6.00;4.60;;;23.90;99.90;;;;;;5031159;28;20477;-47
2022/05/03 03:42:16;;;;;;;6.50;4.95;;;23.90;99.90;;;;;;5031069;28;20041;-47
2022/05/03 03:44:42;;;;;;;6.45;4.70;;;23.90;99.90;;;;;;5031070;28;20030;-47
2022/05/03 03:47:09;;;;;;;6.40;4.55;;;23.90;99.90;;;;;;5031127;28;20384;-47
2022/05/03 03:49:36;;;;;;;5.57;4.88;;;23.90;99.90;;;;;;5029669;28;20029;-47
2022/05/03 03:52:02;;;;;;;5.65;4.20;;;23.90;99.90;;;;;;5030907;28;20029;-46
2022/05/03 03:54:29;;;;;;;8.32;5.45;;;23.90;99.90;;;;;;5030952;28;20030;-47
2022/05/03 03:56:56;;;;;;;6.17;4.70;;;23.90;99.90;;;;;;5030815;28;20536;-47
2022/05/03 03:59:22;;;;;;;5.95;4.78;;;23.90;99.90;;;;;;5033421;28;20285;-47
2022/05/03 04:01:49;;;;;;;6.90;4.97;;;23.90;99.90;;;;;;5035493;28;20026;-47
2022/05/03 04:04:17;;;;;;;5.68;4.78;;;23.80;99.90;;;;;;5034573;28;20362;-47
2022/05/03 04:06:43;;;;;;;5.78;4.47;;;23.90;99.90;;;;;;5034749;28;20416;-47
2022/05/03 04:09:09;;;;;;;9.00;5.25;;;23.80;99.90;;;;;;5034784;28;20381;-47
2022/05/03 04:11:46;;;;;;;6.15;4.65;;;23.90;99.90;;;;;;5034519;28;20034;-47
2022/05/03 04:14:13;;;;;;;6.05;4.50;;;23.80;99.90;;;;;;5034635;28;20512;-47
2022/05/03 04:16:39;;;;;;;5.88;4.80;;;23.90;99.90;;;;;;5034401;28;20026;-47
2022/05/03 04:19:05;;;;;;;7.38;5.03;;;23.90;99.90;;;;;;5034462;28;20041;-47
2022/05/03 04:21:31;;;;;;;5.30;4.13;;;23.80;99.90;;;;;;5034444;28;20103;-47
2022/05/03 04:23:56;;;;;;;5.70;4.60;;;23.80;99.90;;;;;;5034345;28;20030;-47
2022/05/03 04:26:22;;;;;;;6.05;4.43;;;23.80;99.90;;;;;;5034199;28;20064;-47
2022/05/03 04:28:48;;;;;;;6.65;4.10;;;23.80;99.90;;;;;;5032873;28;20022;-47
2022/05/03 04:31:14;;;;;;;5.82;4.13;;;23.80;99.90;;;;;;5034329;28;20057;-47
2022/05/03 04:33:40;;;;;;;6.43;5.07;;;23.80;99.90;;;;;;5034153;28;20037;-47
2022/05/03 04:36:06;;;;;;;5.10;3.67;;;23.80;99.90;;;;;;5034069;28;20033;-47
2022/05/03 04:38:31;;;;;;;5.43;4.18;;;23.80;99.90;;;;;;5034203;28;20017;-47
2022/05/03 04:40:58;;;;;;;5.00;4.03;;;23.80;99.90;;;;;;5034130;28;20473;-47
2022/05/03 04:43:24;;;;;;;4.88;3.38;;;23.80;99.90;;;;;;5034012;28;20037;-47
2022/05/03 04:45:51;;;;;;;4.97;3.80;;;23.80;99.90;;;;;;5033957;28;20025;-47
2022/05/03 04:48:17;;;;;;;5.10;4.05;;;23.80;99.90;;;;;;5033956;28;20145;-47
2022/05/03 04:50:43;;;;;;;5.03;3.80;;;23.80;99.90;;;;;;5033965;28;20017;-47
2022/05/03 04:53:09;;;;;;;5.75;4.03;;;23.80;99.90;;;;;;5033819;28;20048;-47
2022/05/03 04:55:38;;;;;;;5.00;3.65;;;23.80;99.90;;;;;;5033941;28;20501;-47
2022/05/03 04:58:04;;;;;;;5.53;3.85;;;23.80;99.90;;;;;;5032405;28;20037;-47
2022/05/03 05:00:30;;;;;;;5.03;3.85;;;23.80;99.90;;;;;;5033606;28;20045;-47
2022/05/03 05:02:56;;;;;;;4.13;3.28;;;23.80;99.90;;;;;;5033594;28;20469;-47
2022/05/03 05:05:21;;;;;;;4.95;3.85;;;23.80;99.90;;;;;;5033615;28;20026;-47
2022/05/03 05:07:47;;;;;;;5.53;3.97;;;23.80;99.90;;;;;;5034027;28;20033;-47
2022/05/03 05:10:26;;;;;;;6.82;3.72;;;23.80;99.90;;;;;;5032539;28;20029;-47
2022/05/03 05:12:54;;;;;;;5.32;3.60;;;23.80;99.90;;;;;;5033391;28;20481;-47
2022/05/03 05:15:23;;;;;;;5.38;3.78;;;23.80;99.90;;;;;;5033419;28;20104;-47
2022/05/03 05:17:52;;;;;;;4.70;3.58;;;23.80;99.90;;;;;;5033479;28;20021;-47
2022/05/03 05:20:19;;;;;;;4.97;3.80;;;23.80;99.90;;;;;;5033457;28;20036;-47
2022/05/03 05:25:30;;;;;;;4.07;3.20;;;23.80;99.90;;;;;;5033468;28;20051;-46
2022/05/03 05:27:56;;;;;;;5.47;3.78;;;23.80;99.90;;;;;;5033245;28;20473;-47
2022/05/03 05:30:22;;;;;;;4.90;3.70;;;23.80;99.90;;;;;;5033241;28;20436;-47
2022/05/03 05:32:47;;;;;;;5.60;3.85;;;23.80;99.90;;;;;;5033066;28;20025;-47
2022/05/03 05:35:14;;;;;;;5.57;3.72;;;23.80;99.90;;;;;;5031825;28;20152;-46
2022/05/03 05:37:40;;;;;;;4.95;3.42;;;23.80;99.90;;;;;;5032905;28;20437;-46
2022/05/03 05:40:07;;;;;;;4.43;3.55;;;23.80;99.90;;;;;;5032779;28;20025;-46
2022/05/03 05:42:33;;;;;;;4.88;3.67;;;23.80;99.90;;;;;;5032965;28;20036;-46
2022/05/03 05:44:59;;;;;;;4.00;3.25;;;23.80;99.90;;;;;;5032721;28;20109;-46
2022/05/03 05:47:26;;;;;;;6.30;3.85;;;23.80;99.90;;;;;;5032906;28;20021;-47
2022/05/03 05:49:52;;;;;;;5.38;3.88;;;23.80;99.90;;;;;;5033021;28;20036;-47
2022/05/03 05:55:02;;;;;;;4.38;3.67;;;23.80;99.90;;;;;;5032583;28;20064;-47
2022/05/03 05:57:28;;;;;;;5.63;3.55;;;23.80;99.90;;;;;;5032595;28;20469;-47
2022/05/03 06:02:39;;;;;;;4.25;3.60;;;23.80;99.90;;;;;;5032345;28;20453;-47
2022/05/03 06:05:08;;;;;;;6.65;3.80;;;23.80;99.90;;;;;;5032342;28;20473;-48
2022/05/03 06:07:34;;;;;;;6.97;4.57;;;23.80;99.90;;;;;;5031091;28;20252;-47
2022/05/03 06:10:00;;;;;;;6.00;3.80;;;23.80;99.90;;;;;;5032359;28;20112;-47
2022/05/03 06:12:26;;;;;;;4.93;3.80;;;23.70;99.90;;;;;;5032271;28;20025;-47
2022/05/03 06:14:52;;;;;;;7.32;3.90;;;23.70;99.90;;;;;;5032092;28;20072;-47
2022/05/03 06:17:18;;;;;;;5.55;4.10;;;23.70;99.90;;;;;;5032374;28;20018;-47
2022/05/03 06:19:44;;;;;;;6.47;4.18;;;23.80;99.90;;;;;;5031980;28;20397;-47
2022/05/03 06:22:10;;;;;;;5.00;3.85;;;23.80;99.90;;;;;;5031858;28;20018;-47
2022/05/03 06:24:38;;;;;;;6.32;3.72;;;23.70;99.90;;;;;;5031969;28;20032;-47
2022/05/03 06:27:04;;;;;;;;;;;23.70;99.90;;;;;;5025613;28;20451;-46
2022/05/03 06:29:32;;;;;;;6.80;4.25;;;23.80;99.90;;;;;;5028697;28;19905;-46
2022/05/03 06:31:59;;;;;;;4.72;3.45;;;23.80;99.90;;;;;;5031945;28;20024;-47
2022/05/03 06:34:26;;;;;;;6.57;3.50;;;23.80;99.90;;;;;;5031818;28;20508;-46
2022/05/03 06:36:52;;;;;;;7.25;4.30;;;23.80;99.90;;;;;;5031926;28;20029;-46
2022/05/03 06:39:18;;;;;;;5.63;3.78;;;23.80;99.90;;;;;;5029419;28;20022;-46
2022/05/03 06:41:43;;;;;;;5.47;4.15;;;23.80;99.90;;;;;;5031733;28;20036;-46
2022/05/03 06:44:09;;;;;;;8.05;4.15;;;23.80;99.90;;;;;;5031948;28;20472;-46
2022/05/03 06:46:35;;;;;;;5.03;3.80;;;23.70;99.90;;;;;;5030827;28;20041;-46
2022/05/03 06:49:00;;;;;;;7.53;4.10;;;23.70;99.90;;;;;;5031583;28;20087;-46
2022/05/03 06:51:26;;;;;;;8.10;4.30;;;23.70;99.90;;;;;;5031742;28;20022;-47
2022/05/03 06:53:52;;;;;;;7.45;4.18;;;23.70;99.90;;;;;;5031708;28;20440;-46
2022/05/03 06:56:18;;;;;;;7.38;4.40;;;23.80;99.90;;;;;;5031649;28;20036;-46
2022/05/03 06:58:44;;;;;;;6.65;4.30;;;23.80;99.90;;;;;;5031529;28;20038;-46
2022/05/03 07:01:11;;;;;;;6.25;3.97;;;23.70;99.90;;;;;;5031369;28;20057;-46
2022/05/03 07:03:38;;;;;;;6.82;4.55;;;23.80;99.90;;;;;;5031513;28;20022;-46
2022/05/03 07:06:05;;;;;;;7.35;4.18;;;23.70;99.90;;;;;;5031426;28;20053;-46
2022/05/03 07:08:31;;;;;;;7.07;4.17;;;23.80;99.90;;;;;;5031386;28;20056;-47
2022/05/03 07:10:57;;;;;;;7.93;4.22;;;23.80;99.90;;;;;;5031381;28;20030;-46
2022/05/03 07:13:24;;;;;;;7.22;4.35;;;23.80;99.90;;;;;;5031459;28;20378;-46
2022/05/03 07:15:54;;;;;;;6.68;3.88;;;23.80;99.90;;;;;;5031517;28;20032;-46
2022/05/03 07:24:08;;;;;;;8.07;4.20;;;23.80;99.90;;;;;;5031157;28;20067;-47
2022/05/03 07:26:33;;;;;;;6.65;4.30;;;23.70;99.90;;;;;;5031173;28;20029;-47
2022/05/03 07:28:59;;;;;;;5.75;4.05;;;23.80;99.90;;;;;;5029955;28;20068;-47
2022/05/03 07:31:25;;;;;;;7.72;4.45;;;23.80;99.90;;;;;;5031110;28;20026;-46
2022/05/03 07:33:51;;;;;;;6.07;3.78;;;23.80;99.90;;;;;;5033999;28;20543;-46
2022/05/03 07:36:20;;;;;;;5.53;3.45;;;23.80;99.90;;;;;;5035466;28;20498;-46
2022/05/03 07:38:46;;;;;;;7.25;5.00;;;23.80;99.90;;;;;;5034972;28;20512;-47
2022/05/03 07:41:12;;;;;;;4.72;3.22;;;23.80;99.90;;;;;;5035034;28;20029;-46
2022/05/03 07:43:39;;;;;;;6.25;4.07;;;23.80;99.90;;;;;;5035056;28;20469;-46
2022/05/03 07:46:05;;;;;;;5.35;3.40;;;23.90;99.90;;;;;;5034966;28;20079;-47
2022/05/03 07:48:30;;;;;;;5.70;4.00;;;23.90;99.90;;;;;;5034818;28;20474;-46
2022/05/03 07:50:56;;;;;;;7.18;4.15;;;23.90;99.90;;;;;;5034786;28;20029;-47
2022/05/03 07:53:22;;;;;;;5.50;3.78;;;23.90;99.90;;;;;;5034930;28;20033;-46
2022/05/03 07:55:49;;;;;;;4.38;3.20;;;23.90;99.90;;;;;;5034779;28;20389;-47
2022/05/03 07:58:16;;;;;;;6.38;4.03;;;23.90;99.90;;;;;;5034849;28;20575;-46
2022/05/03 08:00:42;;;;;;;6.47;4.20;;;23.90;99.90;;;;;;5034719;28;20076;-47
2022/05/03 08:03:08;;;;;;;6.07;4.20;;;23.90;99.90;;;;;;5033499;28;20029;-46
2022/05/03 08:05:34;;;;;;;6.50;4.95;;;23.90;99.90;;;;;;5034675;28;20480;-47
2022/05/03 08:07:59;;;;;;;6.75;4.50;;;23.90;99.90;;;;;;5034613;28;20064;-46
2022/05/03 08:10:25;;;;;;;7.32;4.40;;;23.90;99.90;;;;;;5034893;28;20021;-46
2022/05/03 08:12:51;;;;;;;6.38;4.38;;;23.90;99.90;;;;;;5034391;28;20032;-46
2022/05/03 08:15:21;;;;;;;7.65;4.70;;;23.90;99.90;;;;;;5034486;28;20030;-46
2022/05/03 08:17:47;;;;;;;8.73;4.72;;;24.00;99.90;;;;;;5034521;28;20026;-46
2022/05/03 08:20:14;;;;;;;7.63;4.65;;;24.00;99.90;;;;;;5034293;28;20029;-47
2022/05/03 08:22:41;;;;;;;6.85;4.90;;;24.00;99.90;;;;;;5034260;28;20109;-47
2022/05/03 08:25:07;;;;;;;8.88;5.43;;;24.00;99.90;;;;;;5034215;28;20026;-46
2022/05/03 08:27:36;;;;;;;9.27;5.60;;;24.00;99.90;;;;;;5034194;28;20056;-47
2022/05/03 08:30:03;;;;;;;8.00;5.25;;;24.00;99.90;;;;;;5033103;28;20018;-46
2022/05/03 08:32:29;;;;;;;10.77;6.53;;;23.90;99.90;;;;;;5034135;28;20029;-46
2022/05/03 08:34:55;;;;;;;9.88;5.25;;;23.90;99.90;;;;;;5034094;28;20381;-46
2022/05/03 08:42:49;;;;;;;8.48;5.97;;;24.00;99.90;;;;;;5033928;28;20116;-46
2022/05/03 08:45:15;;;;;;;9.05;6.53;;;24.00;99.90;;;;;;5033881;28;20112;-47
2022/05/03 08:47:41;;;;;;;9.55;6.53;;;24.00;99.90;;;;;;5033764;28;20049;-46
2022/05/03 08:50:09;;;;;;;8.63;6.18;;;24.00;99.90;;;;;;5033824;28;20445;-46
2022/05/03 08:52:44;;;;;;;10.02;6.22;;;24.00;99.90;;;;;;5033873;28;20026;-45
2022/05/03 08:55:11;;;;;;;9.18;6.50;;;24.00;99.90;;;;;;5033784;28;20063;-45
2022/05/03 08:57:38;;;;;;;11.13;6.82;;;24.00;99.90;;;;;;5033768;28;20028;-45
2022/05/03 09:00:22;;;;;;;8.70;6.43;;;24.00;99.90;;;;;;5033408;28;20069;-46
2022/05/03 09:02:51;;;;;;;10.73;7.43;;;24.00;99.90;;;;;;5033337;28;20031;-46
2022/05/03 09:05:18;;;;;;;10.45;7.22;;;24.00;99.90;;;;;;5033546;28;20128;-46
2022/05/03 09:07:56;;;;;;;11.43;7.78;;;24.00;99.90;;;;;;5033567;28;20375;-47
2022/05/03 09:10:27;;;;;;;10.68;7.82;;;24.00;99.90;;;;;;5033427;28;20498;-46
2022/05/03 09:12:55;;;;;;;10.68;7.13;;;24.00;99.90;;;;;;5033354;28;20032;-46
2022/05/03 09:15:33;;;;;;;11.48;7.90;;;24.00;99.90;;;;;;5032139;28;20036;-46
2022/05/03 09:18:00;;;;;;;12.30;7.63;;;24.00;99.90;;;;;;5033639;28;20026;-46
2022/05/03 09:26:24;;;;;;;10.27;7.88;;;24.00;99.90;;;;;;5033510;28;20083;-45
2022/05/03 09:29:03;;;;;;;12.13;8.38;;;24.00;99.90;;;;;;5033103;28;20088;-46
2022/05/03 09:31:39;;;;;;;10.38;7.10;;;24.00;99.90;;;;;;5033287;28;20520;-47
2022/05/03 09:34:19;;;;;;;9.73;7.25;;;24.00;99.90;;;;;;5033056;28;20049;-46
2022/05/03 09:36:55;;;;;;;10.65;7.38;;;24.00;99.90;;;;;;5032802;28;20428;-46
2022/05/03 09:39:31;;;;;;;10.43;7.27;;;24.00;99.90;;;;;;5032995;28;20106;-46
2022/05/03 09:42:14;;;;;;;10.57;7.97;;;24.00;99.90;;;;;;5033098;28;20059;-46
2022/05/03 09:44:52;;;;;;;10.48;6.63;;;24.00;99.90;;;;;;5032699;28;20021;-45
2022/05/03 09:47:26;;;;;;;8.35;6.20;;;24.00;99.90;;;;;;5032698;28;20064;-46
2022/05/03 09:49:52;;;;;;;11.65;7.32;;;24.10;99.90;;;;;;5032617;28;20592;-46
2022/05/03 09:52:30;;;;;;;10.57;7.53;;;24.00;99.90;;;;;;5032813;28;20466;-47
2022/05/03 09:55:06;;;;;;;;;;;24.00;99.90;;;;;;5032726;28;20053;-46
2022/05/03 09:57:37;;;;;;;10.77;7.15;;;24.10;99.90;;;;;;5032588;28;19905;-46
2022/05/03 10:00:05;;;;;;;8.68;6.72;;;24.10;99.90;;;;;;5032303;28;20045;-46
2022/05/03 10:02:32;;;;;;;9.20;6.35;;;24.10;99.90;;;;;;5032666;28;20034;-47
2022/05/03 10:04:59;;;;;;;10.40;7.50;;;24.00;99.90;;;;;;5032215;28;20028;-46
2022/05/03 10:07:26;;;;;;;9.73;6.60;;;24.10;99.90;;;;;;5032115;28;20026;-46
2022/05/03 10:09:52;;;;;;;;;;;24.10;99.90;;;;;;5032944;28;20125;-46
2022/05/03 10:12:19;;;;;;;8.55;5.78;;;24.10;99.90;;;;;;5032035;28;19993;-46
2022/05/03 10:14:47;;;;;;;8.02;6.00;;;24.10;99.90;;;;;;5031990;28;20033;-46
2022/05/03 10:20:38;;;;;;;7.45;5.22;;;24.10;99.90;;;;;;5032209;28;20578;-47
2022/05/03 10:23:28;;;;;;;8.63;5.20;;;24.20;99.90;;;;;;5032006;28;20034;-47
2022/05/03 10:26:23;;;;;;;6.72;4.75;;;24.20;99.90;;;;;;5032065;28;20029;-47
2022/05/03 10:28:59;;;;;;;7.10;4.75;;;24.20;99.90;;;;;;5022805;28;20033;-47
2022/05/03 10:31:25;;;;;;;7.07;4.85;;;24.20;99.90;;;;;;5031924;28;20033;-47
2022/05/03 10:33:51;;;;;;;7.68;5.10;;;24.20;99.90;;;;;;5031957;28;20500;-47
2022/05/03 10:36:32;;;;;;;7.07;5.45;;;24.20;99.90;;;;;;5031753;28;20525;-47
2022/05/03 10:39:19;;;;;;;9.45;6.32;;;24.20;99.90;;;;;;5031774;28;20394;-48
2022/05/03 10:41:52;;;;;;;;;;;24.30;99.90;;;;;;5032181;28;20155;-47
2022/05/03 10:44:55;;;;;;;8.65;6.80;;;24.30;99.90;;;;;;5031734;28;19959;-47
2022/05/03 10:47:54;;;;;;;9.00;5.75;;;24.30;99.90;;;;;;5030337;28;20022;-47
2022/05/03 10:50:30;;;;;;;10.73;7.22;;;24.30;99.90;;;;;;5031506;28;20029;-47
2022/05/03 10:52:59;;;;;;;12.05;8.30;;;24.30;99.90;;;;;;5031210;28;20017;-47
2022/05/03 10:55:27;;;;;;;12.80;8.25;;;24.30;99.90;;;;;;5031223;28;20037;-47
2022/05/03 10:58:20;;;;;;;18.15;11.80;;;24.30;99.90;;;;;;5031506;28;20102;-47
2022/05/03 11:01:01;;;;;;;14.20;10.00;;;24.30;99.90;;;;;;5031023;28;20052;-47
2022/05/03 11:03:27;;;;;;;14.30;10.07;;;24.30;99.90;;;;;;5031316;28;20067;-46
2022/05/03 11:06:25;;;;;;;19.20;11.75;;;24.30;99.90;;;;;;5031429;28;20483;-46
2022/05/03 11:11:46;;;;;;;21.17;14.35;;;24.40;99.90;;;;;;5031324;28;20024;-47
2022/05/03 11:14:24;;;;;;;19.75;14.55;;;24.40;99.90;;;;;;5031178;28;20049;-47
2022/05/03 11:17:05;;;;;;;19.98;15.38;;;24.40;99.90;;;;;;5031280;28;20028;-47
2022/05/03 11:19:35;;;;;;;23.05;17.25;;;24.40;99.90;;;;;;5031294;28;20030;-47
2022/05/03 11:22:08;;;;;;;18.80;15.32;;;24.40;99.90;;;;;;5031315;28;20029;-48
2022/05/03 11:24:33;;;;;;;21.00;16.17;;;24.40;99.90;;;;;;5013734;28;20030;-47
2022/05/03 11:27:02;;;;;;;20.73;16.33;;;24.40;99.90;;;;;;5031034;28;20030;-47
2022/05/03 11:29:38;;;;;;;17.95;14.45;;;24.40;99.90;;;;;;5034667;28;20040;-47
2022/05/03 11:32:08;;;;;;;18.90;15.00;;;24.50;99.90;;;;;;5038204;28;20285;-46
2022/05/03 11:34:35;;;;;;;19.38;14.40;;;24.40;99.90;;;;;;5041556;28;20033;-46
2022/05/03 11:37:03;;;;;;;18.27;14.73;;;24.40;99.90;;;;;;5039443;28;20017;-47
2022/05/03 11:39:28;;;;;;;;;;;24.40;99.90;;;;;;5040891;28;20039;-46
2022/05/03 11:41:55;;;;;;;16.23;13.32;;;24.50;99.90;;;;;;5034823;28;19909;-47
2022/05/03 11:44:20;;;;;;;18.80;14.00;;;24.50;99.90;;;;;;5011220;28;20030;-46
2022/05/03 11:46:48;;;;;;;16.13;12.93;;;24.50;99.90;;;;;;5011127;28;20029;-46
2022/05/03 11:49:16;;;;;;;15.88;11.55;;;24.50;99.90;;;;;;5011195;28;20032;-46
2022/05/03 11:57:22;;;;;;;13.73;10.75;;;24.50;99.90;;;;;;5008989;28;20029;-46
2022/05/03 11:59:56;;;;;;;16.67;10.90;;;24.50;99.90;;;;;;5010641;28;20148;-46
2022/05/03 12:02:29;;;;;;;14.27;10.38;;;24.50;99.90;;;;;;5011708;28;20033;-46
2022/05/03 12:05:04;;;;;;;11.10;8.93;;;24.50;99.90;;;;;;5020442;28;20022;-46
2022/05/03 12:07:49;;;;;;;13.48;9.48;;;24.50;99.90;;;;;;5012244;28;20056;-45
2022/05/03 12:10:34;;;;;;;10.63;8.00;;;24.50;99.90;;;;;;5024533;28;20485;-47
2022/05/03 12:13:22;;;;;;;10.13;7.45;;;24.50;99.90;;;;;;5025052;28;20103;-47
2022/05/03 12:16:03;;;;;;;10.90;7.85;;;24.50;99.90;;;;;;5017144;28;20584;-45
2022/05/03 12:18:49;;;;;;;10.63;7.43;;;24.50;99.90;;;;;;5021828;28;20045;-46
2022/05/03 12:21:28;;;;;;;14.35;7.15;;;24.60;99.90;;;;;;5025478;28;20025;-46
2022/05/03 12:24:04;;;;;;;10.27;6.32;;;24.60;99.90;;;;;;5018610;28;20022;-46
2022/05/03 12:26:38;;;;;;;10.00;6.43;;;24.60;99.90;;;;;;5015629;28;20385;-47
2022/05/03 12:29:06;;;;;;;6.78;5.43;;;24.60;99.90;;;;;;5025601;28;20033;-46
2022/05/03 12:31:35;;;;;;;8.45;5.43;;;24.50;99.90;;;;;;5014519;28;20022;-48
2022/05/03 12:34:03;;;;;;;10.70;5.85;;;24.60;99.90;;;;;;5015259;28;20061;-45
2022/05/03 12:36:40;;;;;;;10.50;5.70;;;24.60;99.90;;;;;;5014122;28;20514;-46
2022/05/03 12:39:23;;;;;;;6.00;4.93;;;24.60;99.90;;;;;;5015914;28;20025;-47
2022/05/03 12:41:57;;;;;;;8.63;5.22;;;24.70;99.90;;;;;;5014230;28;20033;-47
2022/05/03 12:44:24;;;;;;;10.32;5.13;;;24.60;99.90;;;;;;5014831;28;20024;-47
2022/05/03 12:47:00;;;;;;;6.95;5.03;;;24.70;99.90;;;;;;5029552;28;20095;-47
2022/05/03 12:49:26;;;;;;;13.45;5.45;;;24.70;99.90;;;;;;5015383;28;20034;-47
2022/05/03 12:51:52;;;;;;;7.40;5.07;;;24.70;99.90;;;;;;5015117;28;20508;-47
2022/05/03 12:54:17;;;;;;;11.20;5.57;;;24.70;99.90;;;;;;5031805;28;20036;-48
2022/05/03 12:59:29;;;;;;;7.60;4.68;;;24.70;99.90;;;;;;5030470;28;20060;-47
2022/05/03 13:01:57;;;;;;;10.90;5.45;;;24.80;99.90;;;;;;5033452;28;20030;-46
2022/05/03 13:04:28;;;;;;;10.13;4.90;;;24.80;99.90;;;;;;5031717;28;20116;-45
2022/05/03 13:06:54;;;;;;;12.45;5.30;;;24.80;99.90;;;;;;5014618;28;20470;-45
2022/05/03 13:09:21;;;;;;;8.65;5.40;;;24.80;99.90;;;;;;5018905;28;20071;-45
2022/05/03 13:11:47;;;;;;;9.40;5.15;;;24.70;99.90;;;;;;5018507;28;20470;-46
2022/05/03 13:14:13;;;;;;;11.77;5.43;;;24.80;99.90;;;;;;5029242;28;20068;-46
2022/05/03 13:19:24;;;;;;;8.77;5.50;;;24.80;99.90;;;;;;5018460;28;20098;-43
2022/05/03 13:21:50;;;;;;;7.75;5.13;;;24.90;99.90;;;;;;5023088;28;20026;-44
2022/05/03 13:24:16;;;;;;;10.88;5.07;;;24.90;99.90;;;;;;5032542;28;20038;-43
2022/05/03 13:26:42;;;;;;;11.45;5.50;;;24.90;99.90;;;;;;5031015;28;20051;-46
2022/05/03 13:29:11;;;;;;;14.05;6.15;;;24.90;99.90;;;;;;5021378;28;20028;-43
2022/05/03 13:31:38;;;;;;;7.65;5.10;;;24.90;99.90;;;;;;5018706;28;20101;-43
2022/05/03 13:34:05;;;;;;;7.50;4.43;;;25.00;99.90;;;;;;5031208;28;20044;-44
2022/05/03 13:41:59;;;;;;;17.13;5.70;;;24.90;99.90;;;;;;5027016;28;20060;-45
2022/05/03 13:44:25;;;;;;;7.05;5.22;;;24.90;99.90;;;;;;5014293;28;20025;-44
2022/05/03 13:46:52;;;;;;;10.02;5.68;;;24.90;99.90;;;;;;5015183;28;20485;-45
2022/05/03 13:49:19;;;;;;;8.45;5.00;;;24.90;99.90;;;;;;5032256;28;20060;-44
2022/05/03 13:51:46;;;;;;;8.20;4.82;;;25.00;99.90;;;;;;5028573;28;20044;-45
2022/05/03 13:54:12;;;;;;;9.50;5.07;;;25.00;99.90;;;;;;5028358;28;20070;-45
2022/05/03 13:56:37;;;;;;;11.93;5.30;;;25.00;99.90;;;;;;5028332;28;20028;-45
2022/05/03 13:59:04;;;;;;;13.48;5.10;;;25.00;99.90;;;;;;5028376;28;20034;-45
2022/05/03 14:01:31;;;;;;;11.82;5.25;;;25.00;99.90;;;;;;5030740;28;20041;-45
2022/05/03 14:03:59;;;;;;;8.13;4.82;;;25.00;99.90;;;;;;5019774;28;20508;-46
2022/05/03 14:06:25;;;;;;;8.38;5.00;;;25.00;99.90;;;;;;5016394;28;20041;-47
2022/05/03 14:08:51;;;;;;;8.80;5.22;;;25.00;99.90;;;;;;5012445;28;20109;-46